Time;durP1;ratioP1;P1;durP2;ratioP2;P2;SDS_P1;SDS_P2;PMS_P1;PMS_P2;Temp;Humidity;BMP_temperature;BMP_pressure;BME280_temperature;BME280_humidity;BME280_pressure;Samples;Min_cycle;Max_cycle;Signal;HPM_P1;HPM_P2
2021/05/09 00:02:20;;;;;;;3.95;2.63;;;;;;;8.03;77.73;98393.50;5052131;28;20064;-72
2021/05/09 00:04:45;;;;;;;5.82;2.65;;;;;;;7.96;77.41;98386.41;5049585;28;20041;-72
2021/05/09 00:07:12;;;;;;;3.83;2.38;;;;;;;7.96;78.00;98392.63;5022588;28;20043;-73
2021/05/09 00:09:37;;;;;;;3.88;2.65;;;;;;;8.11;77.71;98393.34;5016682;28;20029;-71
2021/05/09 00:12:03;;;;;;;5.80;2.80;;;;;;;8.04;77.69;98388.94;5035223;28;20032;-74
2021/05/09 00:14:29;;;;;;;4.40;2.60;;;;;;;7.98;78.36;98387.88;5042736;28;20036;-73
2021/05/09 00:16:54;;;;;;;6.78;2.90;;;;;;;7.85;79.00;98369.75;5054000;28;20028;-73
2021/05/09 00:19:20;;;;;;;4.68;2.60;;;;;;;7.73;78.79;98365.09;5041917;28;20033;-72
2021/05/09 00:21:45;;;;;;;3.65;2.03;;;;;;;7.57;78.84;98371.59;5017205;28;20402;-73
2021/05/09 00:24:10;;;;;;;3.78;2.60;;;;;;;7.40;80.13;98365.69;5034010;28;20028;-72
2021/05/09 00:26:35;;;;;;;3.08;2.20;;;;;;;7.74;78.98;98362.22;5017028;28;20078;-70
2021/05/09 00:29:01;;;;;;;3.28;2.38;;;;;;;7.63;79.04;98360.09;5036055;28;20108;-72
2021/05/09 00:31:26;;;;;;;5.80;2.50;;;;;;;7.61;79.11;98373.72;5037567;28;20057;-73
2021/05/09 00:33:52;;;;;;;4.38;2.58;;;;;;;7.57;79.38;98368.91;5034076;28;20071;-73
2021/05/09 00:36:17;;;;;;;4.25;2.30;;;;;;;7.52;79.24;98361.44;5017380;28;20552;-73
2021/05/09 00:38:42;;;;;;;7.05;2.55;;;;;;;7.80;79.13;98356.03;5037946;28;20025;-73
2021/05/09 00:41:07;;;;;;;4.90;2.35;;;;;;;7.76;78.44;98362.88;5053165;28;20100;-72
2021/05/09 00:43:33;;;;;;;3.45;2.40;;;;;;;7.65;78.62;98349.94;5053718;28;20027;-73
2021/05/09 00:45:58;;;;;;;3.80;2.50;;;;;;;7.65;79.38;98340.00;5052504;28;20122;-71
2021/05/09 00:48:24;;;;;;;3.67;2.40;;;;;;;7.59;78.60;98354.22;5046736;28;20045;-70
2021/05/09 00:50:49;;;;;;;3.53;2.47;;;;;;;7.65;79.55;98361.56;5053984;28;20029;-70
2021/05/09 00:53:18;;;;;;;2.70;1.83;;;;;;;7.64;79.00;98346.41;5053144;28;20021;-71
2021/05/09 00:55:44;;;;;;;5.00;2.40;;;;;;;7.56;78.99;98332.28;5015711;28;20037;-70
2021/05/09 00:58:11;;;;;;;3.20;2.08;;;;;;;7.68;79.44;98334.22;5039224;28;20033;-70
2021/05/09 01:00:36;;;;;;;3.03;1.92;;;;;;;7.81;78.46;98338.06;5042513;28;20029;-70
2021/05/09 01:03:06;;;;;;;5.18;2.13;;;;;;;7.82;78.19;98347.78;5039229;28;20375;-70
2021/05/09 01:05:32;;;;;;;2.85;2.30;;;;;;;7.72;78.21;98320.38;5052318;28;20029;-71
2021/05/09 01:07:57;;;;;;;4.18;2.28;;;;;;;7.91;77.87;98325.03;5040813;28;20071;-71
2021/05/09 01:10:23;;;;;;;5.80;2.40;;;;;;;7.87;77.88;98318.41;5032594;28;20104;-70
2021/05/09 01:12:48;;;;;;;3.60;2.15;;;;;;;7.94;77.62;98319.28;5014328;28;20396;-71
2021/05/09 01:15:13;;;;;;;7.63;2.15;;;;;;;7.93;78.15;98331.06;5040617;28;20029;-71
2021/05/09 01:17:39;;;;;;;5.35;2.13;;;;;;;7.73;78.45;98303.16;5039894;28;20068;-70
2021/05/09 01:20:13;;;;;;;3.67;1.90;;;;;;;7.84;78.28;98322.31;5053268;28;20033;-70
2021/05/09 01:22:39;;;;;;;4.05;2.30;;;;;;;7.65;78.59;98305.00;5033394;28;20438;-70
2021/05/09 01:25:09;;;;;;;6.93;2.25;;;;;;;7.61;77.86;98297.53;5033054;28;20021;-70
2021/05/09 01:27:35;;;;;;;4.18;1.67;;;;;;;7.73;78.39;98313.94;5015627;28;20067;-70
2021/05/09 01:30:00;;;;;;;2.70;2.00;;;;;;;7.58;77.83;98287.97;5044789;28;20025;-70
2021/05/09 01:32:26;;;;;;;3.10;2.13;;;;;;;7.67;78.65;98307.50;5072955;28;20385;-71
2021/05/09 01:34:51;;;;;;;4.20;2.20;;;;;;;7.46;79.26;98268.00;5035907;28;20498;-70
2021/05/09 01:37:17;;;;;;;7.38;2.22;;;;;;;7.59;78.82;98280.72;5051493;28;20032;-70
2021/05/09 01:39:42;;;;;;;3.65;2.25;;;;;;;7.80;78.63;98317.53;5015348;28;20026;-71
2021/05/09 01:42:07;;;;;;;3.70;2.00;;;;;;;7.68;78.49;98301.09;5014891;28;20471;-70
2021/05/09 01:44:32;;;;;;;6.03;2.65;;;;;;;7.57;79.46;98297.09;5023314;28;20115;-70
2021/05/09 01:46:58;;;;;;;3.88;2.30;;;;;;;7.52;78.90;98296.00;5027713;28;20402;-70
2021/05/09 01:49:23;;;;;;;2.72;1.98;;;;;;;7.47;79.48;98293.91;5014940;28;20017;-70
2021/05/09 01:51:49;;;;;;;5.75;2.10;;;;;;;7.55;80.29;98306.38;5032695;28;20058;-70
2021/05/09 01:54:14;;;;;;;3.40;1.98;;;;;;;7.53;79.81;98309.28;5047359;28;20450;-70
2021/05/09 01:56:40;;;;;;;2.67;2.00;;;;;;;7.50;79.45;98296.22;5032721;28;20025;-69
2021/05/09 01:59:05;;;;;;;4.22;2.28;;;;;;;7.56;80.28;98303.47;5014713;28;20028;-70
2021/05/09 02:01:31;;;;;;;5.43;2.35;;;;;;;7.56;79.63;98299.97;5032302;28;20030;-71
2021/05/09 02:03:56;;;;;;;3.85;2.28;;;;;;;7.49;79.25;98278.38;5014345;28;20018;-70
2021/05/09 02:06:21;;;;;;;3.25;2.17;;;;;;;7.59;79.71;98289.63;5032461;28;20475;-70
2021/05/09 02:08:47;;;;;;;4.50;2.33;;;;;;;7.60;80.26;98302.06;5032728;28;20025;-70
2021/05/09 02:11:12;;;;;;;5.20;2.38;;;;;;;7.43;79.46;98288.06;5034453;28;20045;-71
2021/05/09 02:13:37;;;;;;;2.70;1.70;;;;;;;7.53;79.95;98294.97;5042644;28;20026;-70
2021/05/09 02:16:04;;;;;;;3.13;2.10;;;;;;;7.42;79.81;98280.22;5014727;28;20040;-70
2021/05/09 02:18:29;;;;;;;4.78;1.60;;;;;;;7.51;79.76;98305.09;5013942;28;20078;-72
2021/05/09 02:20:54;;;;;;;6.55;1.85;;;;;;;7.59;79.87;98308.47;5031949;28;20029;-71
2021/05/09 02:23:20;;;;;;;3.58;2.00;;;;;;;7.62;79.26;98304.56;5036652;28;20025;-70
2021/05/09 02:25:46;;;;;;;3.88;2.40;;;;;;;7.52;79.47;98310.31;5052005;28;20025;-70
2021/05/09 02:28:11;;;;;;;3.53;2.35;;;;;;;7.42;79.21;98305.25;5051692;28;20028;-70
2021/05/09 02:30:36;;;;;;;4.05;2.47;;;;;;;7.25;80.34;98299.31;5022788;28;20040;-71
2021/05/09 02:33:02;;;;;;;4.35;2.13;;;;;;;7.17;80.36;98291.38;5018887;28;20024;-71
2021/05/09 02:35:27;;;;;;;3.78;1.95;;;;;;;7.33;80.39;98298.34;5032237;28;20495;-71
2021/05/09 02:37:52;;;;;;;4.05;2.00;;;;;;;7.38;80.91;98297.75;5031316;28;20061;-71
2021/05/09 02:40:18;;;;;;;2.72;2.00;;;;;;;7.39;80.79;98310.22;5034210;28;20018;-71
2021/05/09 02:42:47;;;;;;;3.03;2.10;;;;;;;7.35;80.81;98298.16;5032271;28;20075;-71
2021/05/09 02:45:13;;;;;;;4.57;2.28;;;;;;;7.37;80.28;98305.00;5031600;28;20487;-71
2021/05/09 02:47:38;;;;;;;3.63;1.88;;;;;;;7.36;80.13;98302.50;5017839;28;20052;-71
2021/05/09 02:50:07;;;;;;;3.42;1.77;;;;;;;7.31;79.58;98297.72;5034067;28;20119;-71
2021/05/09 02:52:33;;;;;;;2.90;1.60;;;;;;;7.40;80.49;98295.72;5015282;28;20022;-71
2021/05/09 02:54:58;;;;;;;6.07;2.15;;;;;;;7.39;80.25;98294.06;5049155;28;20107;-71
2021/05/09 02:57:23;;;;;;;4.13;2.13;;;;;;;7.43;79.73;98306.09;5039563;28;20452;-71
2021/05/09 02:59:49;;;;;;;2.75;1.70;;;;;;;7.34;79.43;98308.09;5033373;28;20048;-71
2021/05/09 03:02:14;;;;;;;3.90;2.35;;;;;;;7.15;79.56;98292.59;5022126;28;20571;-71
2021/05/09 03:04:39;;;;;;;4.32;2.00;;;;;;;7.07;80.76;98296.25;5014208;28;20670;-71
2021/05/09 03:07:06;;;;;;;3.20;2.33;;;;;;;7.02;81.47;98299.53;5031554;28;20018;-71
2021/05/09 03:09:32;;;;;;;4.07;2.42;;;;;;;7.10;82.05;98297.72;5033834;28;20026;-71
2021/05/09 03:11:58;;;;;;;4.00;2.30;;;;;;;7.03;81.31;98306.56;5029762;28;20082;-71
2021/05/09 03:14:23;;;;;;;4.55;2.70;;;;;;;7.19;81.28;98300.09;5035024;28;20487;-71
2021/05/09 03:16:48;;;;;;;2.88;2.03;;;;;;;7.23;80.77;98306.78;5032971;28;20111;-71
2021/05/09 03:19:14;;;;;;;3.60;2.17;;;;;;;6.98;81.70;98300.13;5050989;28;20104;-71
2021/05/09 03:21:42;;;;;;;3.28;2.17;;;;;;;6.96;81.66;98310.22;5039011;28;20045;-71
2021/05/09 03:24:12;;;;;;;3.13;2.03;;;;;;;6.74;82.08;98293.28;5043145;28;20024;-71
2021/05/09 03:26:38;;;;;;;2.60;1.70;;;;;;;6.71;82.44;98307.94;5037542;28;20033;-71
2021/05/09 03:29:05;;;;;;;4.10;2.35;;;;;;;6.86;82.11;98304.34;5031408;28;20117;-71
2021/05/09 03:31:31;;;;;;;2.90;2.15;;;;;;;6.95;82.55;98300.50;5026956;28;20489;-71
2021/05/09 03:33:56;;;;;;;3.97;2.10;;;;;;;6.94;81.67;98290.75;5037658;28;20037;-71
2021/05/09 03:36:21;;;;;;;5.35;2.72;;;;;;;6.88;82.24;98296.91;5035882;28;20028;-71
2021/05/09 03:38:47;;;;;;;4.78;2.08;;;;;;;6.77;82.65;98291.03;5049780;28;20033;-71
2021/05/09 03:41:12;;;;;;;3.15;2.22;;;;;;;6.68;83.10;98286.81;5041803;28;20108;-71
2021/05/09 03:43:37;;;;;;;5.63;2.05;;;;;;;6.72;82.89;98296.13;5035657;28;20025;-70
2021/05/09 03:46:03;;;;;;;2.90;2.25;;;;;;;6.67;83.55;98301.25;5034878;28;20087;-71
2021/05/09 03:48:28;;;;;;;3.10;2.00;;;;;;;6.44;83.66;98281.78;5034669;28;20021;-71
2021/05/09 03:50:53;;;;;;;5.85;2.33;;;;;;;6.63;83.38;98310.75;5042708;28;20025;-71
2021/05/09 03:53:18;;;;;;;6.38;2.63;;;;;;;6.46;83.90;98288.63;5028892;28;20017;-70
2021/05/09 03:55:44;;;;;;;3.58;2.58;;;;;;;6.41;84.36;98295.59;5035938;28;20398;-72
2021/05/09 03:58:09;;;;;;;3.85;2.53;;;;;;;6.50;84.00;98311.41;5034148;28;20021;-72
2021/05/09 04:00:34;;;;;;;3.67;2.25;;;;;;;6.37;84.33;98273.66;5043298;28;20029;-72
2021/05/09 04:03:00;;;;;;;3.25;2.20;;;;;;;6.62;84.06;98292.09;5034520;28;20025;-72
2021/05/09 04:05:25;;;;;;;4.05;2.30;;;;;;;6.74;83.47;98290.59;5034950;28;20116;-73
2021/05/09 04:07:50;;;;;;;2.72;1.73;;;;;;;6.77;83.13;98280.28;5039903;28;20029;-72
2021/05/09 04:10:16;;;;;;;3.08;2.05;;;;;;;6.91;82.96;98291.97;5034606;28;20029;-74
2021/05/09 04:12:42;;;;;;;2.63;1.73;;;;;;;6.92;83.17;98282.06;5038470;28;20035;-74
2021/05/09 04:15:08;;;;;;;2.35;1.85;;;;;;;7.11;82.24;98276.03;5034828;28;20104;-74
2021/05/09 04:17:33;;;;;;;3.03;1.80;;;;;;;7.21;81.85;98263.06;5034700;28;20025;-71
2021/05/09 04:19:58;;;;;;;3.78;1.98;;;;;;;7.27;81.57;98271.41;5035320;28;20030;-71
2021/05/09 04:22:24;;;;;;;2.92;1.60;;;;;;;7.29;81.11;98263.97;5018289;28;20033;-71
2021/05/09 04:24:49;;;;;;;2.97;1.88;;;;;;;7.51;81.21;98276.31;5033719;28;20034;-71
2021/05/09 04:27:14;;;;;;;2.35;1.75;;;;;;;7.50;80.63;98255.00;5016281;28;20022;-70
2021/05/09 04:29:40;;;;;;;2.95;2.08;;;;;;;7.53;80.21;98247.34;5034068;28;20037;-72
2021/05/09 04:32:06;;;;;;;5.85;2.92;;;;;;;7.78;79.84;98277.34;5035084;28;20036;-71
2021/05/09 04:34:31;;;;;;;6.65;3.28;;;;;;;7.71;79.73;98267.56;5017392;28;20083;-71
2021/05/09 04:36:56;;;;;;;3.42;2.30;;;;;;;7.65;79.52;98240.41;5033811;28;20029;-72
2021/05/09 04:39:21;;;;;;;6.90;2.70;;;;;;;7.89;79.42;98260.63;5034844;28;20022;-72
2021/05/09 04:41:47;;;;;;;4.70;2.22;;;;;;;7.97;79.15;98256.91;5034299;28;20443;-73
2021/05/09 04:44:12;;;;;;;3.60;2.10;;;;;;;8.10;78.70;98254.28;5033729;28;20017;-73
2021/05/09 04:46:37;;;;;;;3.42;2.17;;;;;;;8.32;78.04;98265.75;5053174;28;20596;-72
2021/05/09 04:49:03;;;;;;;3.45;2.25;;;;;;;8.60;77.04;98269.41;5053898;28;20170;-73
2021/05/09 04:51:28;;;;;;;4.63;2.65;;;;;;;8.64;76.43;98238.28;5041333;28;20367;-72
2021/05/09 04:53:53;;;;;;;6.63;3.38;;;;;;;8.83;75.46;98245.59;5016269;28;20026;-72
2021/05/09 04:56:19;;;;;;;10.32;3.67;;;;;;;8.93;74.64;98261.34;5015561;28;20035;-72
2021/05/09 04:58:44;;;;;;;7.80;3.60;;;;;;;9.02;74.85;98245.81;5033805;28;20060;-72
2021/05/09 05:01:12;;;;;;;4.55;3.10;;;;;;;9.21;74.84;98244.97;5043093;28;20025;-72
2021/05/09 05:03:38;;;;;;;3.70;2.55;;;;;;;9.37;74.90;98255.34;5034144;28;20467;-72
2021/05/09 05:06:04;;;;;;;5.45;2.55;;;;;;;9.49;74.87;98266.34;5017016;28;20034;-72
2021/05/09 05:08:32;;;;;;;3.40;2.22;;;;;;;9.73;73.76;98267.56;5015620;28;20021;-71
2021/05/09 05:11:04;;;;;;;7.57;2.40;;;;;;;9.76;73.46;98253.63;5041850;28;20059;-72
2021/05/09 05:13:31;;;;;;;3.40;2.00;;;;;;;9.93;73.13;98259.41;5124898;22;20040;-71
2021/05/09 05:15:58;;;;;;;3.15;2.20;;;;;;;10.11;72.58;98256.00;5073461;28;20021;-71
2021/05/09 05:18:24;;;;;;;3.13;1.95;;;;;;;10.11;72.17;98256.00;5073832;28;20059;-71
2021/05/09 05:20:51;;;;;;;3.90;2.13;;;;;;;10.10;71.90;98267.88;5081803;28;20031;-71
2021/05/09 05:23:17;;;;;;;3.65;2.10;;;;;;;10.21;71.30;98245.56;5073145;28;20035;-71
2021/05/09 05:25:43;;;;;;;4.07;2.38;;;;;;;10.06;70.92;98251.25;5072245;28;20033;-71
2021/05/09 05:28:09;;;;;;;7.82;3.58;;;;;;;10.05;71.60;98267.66;5054638;28;20400;-69
2021/05/09 05:30:35;;;;;;;4.63;3.17;;;;;;;9.97;71.89;98276.84;5077199;28;20098;-70
2021/05/09 05:33:00;;;;;;;3.53;2.30;;;;;;;9.97;71.60;98276.00;5074102;28;20025;-70
2021/05/09 05:35:26;;;;;;;3.67;1.77;;;;;;;9.85;72.11;98263.16;5073105;28;20032;-70
2021/05/09 05:37:53;;;;;;;4.22;1.65;;;;;;;10.19;72.10;98266.59;5072052;28;20032;-70
2021/05/09 05:40:18;;;;;;;3.22;1.83;;;;;;;10.52;71.19;98279.16;5074034;28;20024;-70
2021/05/09 05:42:44;;;;;;;4.03;1.80;;;;;;;10.82;70.15;98281.25;5073884;28;20512;-70
2021/05/09 05:45:10;;;;;;;2.40;1.55;;;;;;;10.74;70.41;98280.50;5070799;28;20085;-72
2021/05/09 05:47:35;;;;;;;2.67;1.60;;;;;;;10.93;69.53;98262.47;5090815;28;20107;-74
2021/05/09 05:50:01;;;;;;;2.33;1.60;;;;;;;10.93;69.69;98267.06;5087786;28;20036;-75
2021/05/09 05:52:26;;;;;;;2.13;1.58;;;;;;;11.23;69.30;98263.69;5070268;28;20020;-74
2021/05/09 05:54:52;;;;;;;2.30;1.63;;;;;;;11.61;68.53;98253.56;5064533;28;20029;-74
2021/05/09 05:57:17;;;;;;;1.85;1.35;;;;;;;11.88;67.58;98249.78;5072210;28;20473;-75
2021/05/09 05:59:42;;;;;;;2.85;1.70;;;;;;;11.92;66.90;98243.69;5087390;28;20024;-74
2021/05/09 06:02:07;;;;;;;2.78;1.70;;;;;;;12.24;66.05;98247.06;5091891;28;20036;-75
2021/05/09 06:04:33;;;;;;;4.82;2.25;;;;;;;12.51;65.79;98252.13;5092641;28;20359;-75
2021/05/09 06:06:58;;;;;;;6.25;2.08;;;;;;;12.62;65.44;98247.81;5074361;28;20036;-75
2021/05/09 06:09:23;;;;;;;5.90;2.13;;;;;;;12.68;65.70;98257.72;5090805;28;20024;-70
2021/05/09 06:11:49;;;;;;;3.70;1.85;;;;;;;13.11;65.02;98249.38;5065463;28;20047;-74
2021/05/09 06:14:14;;;;;;;3.28;2.20;;;;;;;13.67;63.62;98249.91;5072713;28;20016;-74
2021/05/09 06:16:39;;;;;;;2.47;1.70;;;;;;;14.10;62.55;98237.81;5072925;28;20052;-72
2021/05/09 06:19:05;;;;;;;3.47;2.03;;;;;;;14.71;60.73;98240.94;5082337;28;20040;-74
2021/05/09 06:21:30;;;;;;;3.45;1.70;;;;;;;15.59;59.07;98243.22;5077887;28;20043;-69
2021/05/09 06:23:55;;;;;;;3.60;2.00;;;;;;;16.29;57.15;98237.13;5078617;28;20024;-74
2021/05/09 06:26:20;;;;;;;2.05;1.58;;;;;;;18.06;53.29;98240.94;5093458;28;20020;-74
2021/05/09 06:28:46;;;;;;;3.45;1.73;;;;;;;20.20;48.79;98236.81;5065652;28;20070;-70
2021/05/09 06:31:11;;;;;;;10.38;1.83;;;;;;;22.35;43.78;98231.63;5091903;28;20036;-72
2021/05/09 06:33:36;;;;;;;3.88;1.70;;;;;;;23.15;41.70;98233.59;5074155;28;20028;-74
2021/05/09 06:36:02;;;;;;;3.70;1.70;;;;;;;24.67;39.22;98222.81;5076606;28;20119;-74
2021/05/09 06:38:27;;;;;;;5.13;1.63;;;;;;;24.12;39.44;98229.16;5071885;28;20024;-76
2021/05/09 06:40:53;;;;;;;3.97;1.83;;;;;;;25.06;38.67;98222.19;5072206;28;20034;-78
2021/05/09 06:43:18;;;;;;;2.47;1.60;;;;;;;25.19;37.76;98225.28;5069167;28;20020;-76
2021/05/09 06:45:47;;;;;;;4.00;1.80;;;;;;;24.91;38.68;98226.13;5089213;28;20505;-75
2021/05/09 06:48:12;;;;;;;3.67;1.63;;;;;;;26.34;36.66;98210.63;5069725;28;20055;-77
2021/05/09 06:50:38;;;;;;;1.98;1.42;;;;;;;26.53;36.12;98192.91;5078209;28;20035;-80
2021/05/09 06:53:04;;;;;;;2.33;1.60;;;;;;;25.91;37.34;98216.81;5084280;28;20371;-78
2021/05/09 06:55:30;;;;;;;4.20;1.90;;;;;;;27.18;36.05;98208.66;5073464;28;20035;-72
2021/05/09 06:57:56;;;;;;;2.33;1.50;;;;;;;28.23;34.41;98208.44;5073262;28;20428;-74
2021/05/09 07:00:21;;;;;;;3.78;1.38;;;;;;;28.81;33.64;98212.38;5084156;28;20023;-73
2021/05/09 07:02:48;;;;;;;4.35;2.25;;;;;;;29.17;33.19;98197.88;5071852;28;20378;-72
2021/05/09 07:05:14;;;;;;;1.90;1.30;;;;;;;29.63;32.10;98201.53;5075163;28;20033;-71
2021/05/09 07:07:46;;;;;;;2.78;1.33;;;;;;;31.18;30.77;98193.44;5060163;28;20033;-73
2021/05/09 07:10:11;;;;;;;2.13;1.35;;;;;;;31.52;29.91;98197.63;5071158;28;20024;-74
2021/05/09 07:12:36;;;;;;;1.90;1.38;;;;;;;30.35;31.56;98190.88;5077883;28;20158;-75
2021/05/09 07:15:03;;;;;;;3.92;1.50;;;;;;;29.53;32.40;98198.34;5079468;28;20069;-73
2021/05/09 07:17:29;;;;;;;2.40;1.20;;;;;;;30.17;31.74;98197.81;5070244;28;20115;-74
2021/05/09 07:19:54;;;;;;;1.50;1.00;;;;;;;29.77;32.10;98195.69;5092161;28;20052;-78
2021/05/09 07:22:26;;;;;;;1.63;1.10;;;;;;;29.99;31.83;98196.41;5061817;28;20055;-73
2021/05/09 07:24:52;;;;;;;3.38;1.35;;;;;;;30.00;31.52;98200.81;5075228;28;20031;-74
2021/05/09 07:27:17;;;;;;;2.85;1.25;;;;;;;31.01;30.70;98188.94;5076296;28;20021;-77
2021/05/09 07:29:42;;;;;;;1.75;1.10;;;;;;;31.28;30.47;98192.09;5080264;28;20028;-76
2021/05/09 07:32:08;;;;;;;1.58;1.10;;;;;;;32.01;29.32;98193.75;5090690;28;20103;-76
2021/05/09 07:34:33;;;;;;;1.48;1.10;;;;;;;32.95;28.25;98176.00;5069295;28;20020;-77
2021/05/09 07:36:58;;;;;;;2.40;1.30;;;;;;;32.47;28.27;98175.31;5062433;28;20244;-75
2021/05/09 07:39:23;;;;;;;1.38;0.93;;;;;;;34.00;26.85;98179.69;5092818;28;20103;-77
2021/05/09 07:41:49;;;;;;;1.02;0.75;;;;;;;32.71;28.11;98184.66;5070602;28;20027;-76
2021/05/09 07:44:15;;;;;;;0.98;0.70;;;;;;;31.72;29.15;98172.56;5083206;28;20038;-76
2021/05/09 07:46:40;;;;;;;1.98;0.80;;;;;;;30.10;31.02;98156.56;5090505;28;20029;-75
2021/05/09 07:49:06;;;;;;;4.32;1.00;;;;;;;32.65;28.23;98167.34;5092868;28;20481;-73
2021/05/09 07:51:32;;;;;;;1.00;0.70;;;;;;;33.35;25.95;98155.25;5094001;28;20020;-76
2021/05/09 07:53:58;;;;;;;2.97;0.75;;;;;;;33.30;25.75;98155.53;5074746;28;20106;-75
2021/05/09 07:56:23;;;;;;;1.00;0.60;;;;;;;33.70;25.23;98151.50;5115775;28;20059;-75
2021/05/09 07:58:48;;;;;;;0.88;0.55;;;;;;;33.68;25.35;98155.88;5103826;28;20642;-75
2021/05/09 08:01:13;;;;;;;0.80;0.43;;;;;;;34.68;24.86;98155.53;5057470;28;20022;-75
2021/05/09 08:03:39;;;;;;;1.38;0.70;;;;;;;34.19;25.32;98156.41;5075342;28;20024;-76
2021/05/09 08:06:04;;;;;;;4.53;0.68;;;;;;;34.01;24.98;98147.63;5056673;28;20161;-76
2021/05/09 08:08:31;;;;;;;0.98;0.70;;;;;;;33.91;25.37;98145.47;5085989;28;20028;-76
2021/05/09 08:10:57;;;;;;;2.47;0.90;;;;;;;33.24;26.33;98153.38;5064190;28;20055;-75
2021/05/09 08:13:22;;;;;;;3.30;0.73;;;;;;;33.10;27.07;98148.31;5082730;28;20028;-77
2021/05/09 08:15:47;;;;;;;1.88;0.80;;;;;;;34.02;26.00;98131.59;5077589;28;20032;-76
2021/05/09 08:18:13;;;;;;;1.45;0.90;;;;;;;33.69;25.29;98123.81;5094643;28;20031;-77
2021/05/09 08:20:38;;;;;;;1.00;0.80;;;;;;;34.12;25.16;98139.44;5082683;28;20059;-77
2021/05/09 08:23:04;;;;;;;1.77;0.70;;;;;;;33.53;25.53;98135.91;5088408;28;20021;-77
2021/05/09 08:25:30;;;;;;;0.40;0.40;;;;;;;33.24;26.09;98128.97;5072260;28;20023;-78
2021/05/09 08:27:55;;;;;;;1.58;0.70;;;;;;;33.86;24.69;98136.56;5060423;28;20025;-76
2021/05/09 08:30:22;;;;;;;1.33;0.60;;;;;;;34.14;24.46;98125.81;5084164;28;20040;-76
2021/05/09 08:32:48;;;;;;;0.90;0.60;;;;;;;33.75;24.54;98108.31;5071294;28;20021;-77
2021/05/09 08:35:14;;;;;;;1.48;0.70;;;;;;;35.24;23.42;98110.88;5060411;28;20028;-75
2021/05/09 08:37:40;;;;;;;1.40;0.70;;;;;;;35.16;23.56;98109.19;5082942;28;20028;-75
2021/05/09 08:40:08;;;;;;;2.17;0.80;;;;;;;34.80;23.71;98117.16;5060437;28;20028;-77
2021/05/09 08:42:33;;;;;;;0.90;0.52;;;;;;;35.48;23.08;98101.13;5078230;28;20108;-77
2021/05/09 08:44:59;;;;;;;1.58;0.80;;;;;;;34.41;22.98;98106.97;5077947;28;20121;-76
2021/05/09 08:47:37;;;;;;;3.65;0.70;;;;;;;34.95;23.03;98107.69;5058478;28;20692;-77
2021/05/09 08:50:07;;;;;;;1.60;0.50;;;;;;;35.06;22.00;98093.81;5080378;28;20062;-77
2021/05/09 08:52:33;;;;;;;1.38;0.57;;;;;;;35.19;22.61;98097.16;5079305;28;20288;-77
2021/05/09 08:54:59;;;;;;;0.60;0.45;;;;;;;36.18;21.57;98107.78;5064125;28;20086;-76
2021/05/09 08:57:24;;;;;;;1.23;0.60;;;;;;;35.04;22.27;98102.59;5068609;28;20028;-77
2021/05/09 08:59:49;;;;;;;1.48;0.65;;;;;;;34.87;22.34;98075.06;5079241;28;20090;-77
2021/05/09 09:02:15;;;;;;;0.57;0.47;;;;;;;35.94;21.77;98097.91;5077391;28;20028;-75
2021/05/09 09:04:52;;;;;;;1.73;0.60;;;;;;;34.46;22.16;98105.84;5091035;28;20028;-71
2021/05/09 09:07:18;;;;;;;0.75;0.43;;;;;;;34.44;22.30;98089.34;5073583;28;20028;-72
2021/05/09 09:09:46;;;;;;;1.73;0.40;;;;;;;35.55;21.50;98090.75;5073935;28;20032;-71
2021/05/09 09:12:12;;;;;;;0.63;0.52;;;;;;;35.89;20.79;98090.63;5063068;28;20066;-71
2021/05/09 09:15:00;;;;;;;1.13;0.70;;;;;;;35.26;21.93;98077.56;5087287;28;20020;-71
2021/05/09 09:17:26;;;;;;;2.10;0.80;;;;;;;36.06;21.71;98082.75;5076567;28;20454;-71
2021/05/09 09:20:05;;;;;;;1.42;0.68;;;;;;;35.69;20.89;98092.09;5074051;28;20059;-71
2021/05/09 09:22:49;;;;;;;1.33;0.52;;;;;;;36.43;20.81;98069.31;5061635;28;20056;-71
2021/05/09 09:25:15;;;;;;;0.98;0.60;;;;;;;35.69;20.93;98069.59;5073016;28;20025;-72
2021/05/09 09:27:45;;;;;;;1.35;0.80;;;;;;;35.34;21.43;98057.59;5073496;28;20111;-79
2021/05/09 09:30:12;;;;;;;2.35;0.60;;;;;;;35.54;20.89;98058.16;5068534;28;20036;-77
2021/05/09 09:32:38;;;;;;;2.72;0.60;;;;;;;35.03;21.04;98061.63;5084531;28;20486;-71
2021/05/09 09:35:03;;;;;;;1.67;0.60;;;;;;;35.82;21.18;98056.00;5073261;28;20063;-72
2021/05/09 09:37:33;;;;;;;2.92;0.63;;;;;;;36.14;20.91;98045.00;5072813;28;20540;-73
2021/05/09 09:40:00;;;;;;;1.00;0.60;;;;;;;36.62;21.55;98050.53;5074309;28;20040;-71
2021/05/09 09:42:45;;;;;;;1.05;0.60;;;;;;;36.63;21.12;98038.06;5071908;28;20025;-71
2021/05/09 09:45:31;;;;;;;3.95;0.85;;;;;;;35.40;22.17;98032.72;5081642;28;20443;-71
2021/05/09 09:48:01;;;;;;;1.75;0.60;;;;;;;36.26;21.37;98030.59;5072865;28;20031;-71
2021/05/09 09:50:38;;;;;;;1.95;0.70;;;;;;;35.38;21.96;98028.69;5073202;28;20032;-72
2021/05/09 09:53:28;;;;;;;1.95;0.80;;;;;;;35.57;22.55;98031.25;5074810;28;20024;-72
2021/05/09 09:56:06;;;;;;;1.67;0.60;;;;;;;35.88;21.84;98021.47;5072965;28;20028;-72
2021/05/09 09:58:49;;;;;;;4.20;1.10;;;;;;;37.17;20.87;98005.22;5070848;28;20016;-72
2021/05/09 10:01:27;;;;;;;2.53;0.70;;;;;;;36.91;20.89;98006.31;5067559;28;20176;-73
2021/05/09 10:03:57;;;;;;;1.35;0.73;;;;;;;36.67;20.83;98010.69;5076521;28;20478;-71
2021/05/09 10:06:24;;;;;;;1.13;0.60;;;;;;;37.02;21.32;98000.72;5069451;28;20028;-72
2021/05/09 10:08:50;;;;;;;1.73;0.80;;;;;;;36.43;21.73;97993.25;5070237;28;20085;-71
2021/05/09 10:11:17;;;;;;;3.05;1.10;;;;;;;36.14;21.40;97997.94;5053206;28;20024;-71
2021/05/09 10:13:43;;;;;;;1.67;0.68;;;;;;;35.55;22.08;97992.25;5071458;28;20071;-72
2021/05/09 10:16:09;;;;;;;2.75;1.67;;;;;;;35.46;22.39;97985.34;5077843;28;20063;-71
2021/05/09 10:18:38;;;;;;;2.83;1.52;;;;;;;34.88;22.28;97981.97;5069012;28;20646;-71
2021/05/09 10:21:03;;;;;;;3.13;1.83;;;;;;;35.17;22.67;97981.47;5085466;28;20039;-70
2021/05/09 10:23:29;;;;;;;3.88;0.80;;;;;;;36.37;21.19;97971.50;5069123;28;20024;-71
2021/05/09 10:25:56;;;;;;;2.35;0.70;;;;;;;35.74;21.36;97971.53;5069685;28;20082;-71
2021/05/09 10:28:39;;;;;;;2.78;0.95;;;;;;;36.13;20.92;97972.97;5069235;28;20025;-72
2021/05/09 10:31:05;;;;;;;0.98;0.60;;;;;;;35.29;21.92;97956.69;5078877;28;20569;-73
2021/05/09 10:33:42;;;;;;;1.45;0.63;;;;;;;35.96;21.78;97958.38;5070270;28;20032;-72
2021/05/09 10:36:40;;;;;;;3.63;0.90;;;;;;;36.62;21.04;97958.31;5069075;28;20059;-72
2021/05/09 10:39:07;;;;;;;2.05;1.30;;;;;;;36.74;20.31;97945.88;5077878;28;20031;-72
2021/05/09 10:41:34;;;;;;;2.23;1.20;;;;;;;36.93;20.38;97956.00;5072543;28;20444;-73
2021/05/09 10:43:59;;;;;;;1.80;1.00;;;;;;;36.30;20.64;97944.09;5069369;28;20224;-73
2021/05/09 10:46:25;;;;;;;3.08;1.27;;;;;;;36.45;20.80;97958.25;5068455;28;20025;-73
2021/05/09 10:49:10;;;;;;;1.52;0.73;;;;;;;35.60;21.21;97945.28;5068744;28;20481;-74
2021/05/09 10:51:37;;;;;;;1.33;0.57;;;;;;;35.93;21.14;97959.19;5068316;28;20040;-73
2021/05/09 10:54:22;;;;;;;3.60;0.73;;;;;;;35.40;21.74;97965.22;5068709;28;20464;-72
2021/05/09 10:56:48;;;;;;;0.80;0.60;;;;;;;35.72;20.44;97962.66;5069573;28;20036;-71
2021/05/09 10:59:14;;;;;;;1.23;0.80;;;;;;;37.02;20.48;97949.94;5070570;28;20082;-70
2021/05/09 11:01:39;;;;;;;2.63;0.82;;;;;;;38.07;19.05;97943.91;5082426;28;20031;-71
2021/05/09 11:04:12;;;;;;;0.77;0.65;;;;;;;37.07;19.71;97929.84;5067777;28;20103;-72
2021/05/09 11:06:43;;;;;;;1.52;0.88;;;;;;;37.57;19.37;97932.69;5068685;28;20024;-71
2021/05/09 11:09:20;;;;;;;1.52;1.00;;;;;;;36.93;20.59;97943.91;5069195;28;20025;-71
2021/05/09 11:11:46;;;;;;;1.30;0.52;;;;;;;35.64;20.78;97946.94;5068499;28;20086;-72
2021/05/09 11:14:11;;;;;;;1.57;0.57;;;;;;;36.26;20.49;97946.09;5070484;28;20650;-72
2021/05/09 11:16:44;;;;;;;2.28;0.50;;;;;;;36.31;20.24;97922.38;5074755;28;20505;-70
2021/05/09 11:19:17;;;;;;;5.57;1.25;;;;;;;36.49;20.12;97917.59;5067993;28;20414;-72
2021/05/09 11:21:45;;;;;;;1.55;0.63;;;;;;;38.41;18.96;97915.13;5063961;28;20123;-73
2021/05/09 11:24:18;;;;;;;0.90;0.70;;;;;;;37.93;19.72;97922.13;5079205;28;20085;-74
2021/05/09 11:26:46;;;;;;;0.70;0.60;;;;;;;37.26;19.75;97909.72;5068591;28;20139;-70
2021/05/09 11:29:13;;;;;;;3.05;0.50;;;;;;;36.98;19.89;97904.84;5067388;28;20104;-71
2021/05/09 11:31:41;;;;;;;1.43;0.53;;;;;;;37.11;20.18;97896.81;5068413;28;20040;-71
2021/05/09 11:34:07;;;;;;;3.38;0.70;;;;;;;35.33;20.85;97897.63;5073470;28;20047;-71
2021/05/09 11:36:35;;;;;;;0.90;0.60;;;;;;;36.30;20.41;97876.50;5069768;28;20500;-71